Time;durP1;ratioP1;P1;durP2;ratioP2;P2;SDS_P1;SDS_P2;PMS_P1;PMS_P2;Temp;Humidity;BMP_temperature;BMP_pressure;BME280_temperature;BME280_humidity;BME280_pressure;Samples;Min_cycle;Max_cycle;Signal;HPM_P1;HPM_P2
2023/03/28 00:01:17;;;;;;;5.70;2.90;;;;;;;;;;104945;250;44389;-31
2023/03/28 00:03:53;;;;;;;5.80;2.90;;;;;;;;;;104942;261;39927;-31
2023/03/28 00:06:32;;;;;;;5.80;3.00;;;;;;;;;;104935;261;39780;-31
2023/03/28 00:09:07;;;;;;;5.50;2.80;;;;;;;;;;104895;261;43002;-31
2023/03/28 00:11:42;;;;;;;5.50;2.70;;;;;;;;;;104932;261;42320;-30
2023/03/28 00:14:19;;;;;;;5.90;3.10;;;;;;;;;;104892;261;38929;-30
2023/03/28 00:16:57;;;;;;;5.30;2.80;;;;;;;;;;104912;261;39746;-30
2023/03/28 00:19:31;;;;;;;6.00;2.90;;;;;;;;;;104882;261;42673;-30
2023/03/28 00:22:10;;;;;;;5.80;3.00;;;;;;;;;;104937;261;42169;-30
2023/03/28 00:24:47;;;;;;;5.40;2.90;;;;;;;;;;104944;261;38932;-31
2023/03/28 00:27:21;;;;;;;5.50;2.80;;;;;;;;;;104909;259;39619;-31
2023/03/28 00:29:56;;;;;;;5.60;3.00;;;;;;;;;;104898;261;42902;-31
2023/03/28 00:32:32;;;;;;;5.50;2.80;;;;;;;;;;104951;261;42203;-31
2023/03/28 00:35:09;;;;;;;5.60;3.10;;;;;;;;;;104931;261;39137;-31
2023/03/28 00:37:49;;;;;;;5.30;2.70;;;;;;;;;;104965;261;40776;-31
2023/03/28 00:40:32;;;;;;;5.80;2.90;;;;;;;;;;104887;261;42982;-31
2023/03/28 00:43:14;;;;;;;6.20;2.90;;;;;;;;;;104943;261;44449;-31
2023/03/28 00:45:49;;;;;;;5.30;2.90;;;;;;;;;;104910;261;38832;-31
2023/03/28 00:48:46;;;;;;;5.00;2.90;;;;;;;;;;104906;261;39690;-30
2023/03/28 00:51:27;;;;;;;5.50;2.90;;;;;;;;;;104930;261;42690;-32
2023/03/28 00:54:05;;;;;;;5.30;2.80;;;;;;;;;;104929;261;42246;-32
2023/03/28 00:56:46;;;;;;;5.90;2.80;;;;;;;;;;104954;261;38707;-32
2023/03/28 00:59:24;;;;;;;5.70;3.00;;;;;;;;;;104869;262;39665;-31
2023/03/28 01:02:05;;;;;;;5.60;3.00;;;;;;;;;;104913;261;49102;-31
2023/03/28 01:04:53;;;;;;;5.80;2.90;;;;;;;;;;104904;261;42177;-32
2023/03/28 01:07:34;;;;;;;5.50;2.80;;;;;;;;;;104843;261;176681;-32
2023/03/28 01:10:12;;;;;;;5.30;2.70;;;;;;;;;;104908;261;39828;-31
2023/03/28 01:12:50;;;;;;;5.30;2.80;;;;;;;;;;104931;261;42659;-31
2023/03/28 01:15:28;;;;;;;5.40;2.70;;;;;;;;;;104928;261;42172;-31
2023/03/28 01:18:10;;;;;;;5.00;2.50;;;;;;;;;;104917;261;38811;-30
2023/03/28 01:21:22;;;;;;;5.50;3.20;;;;;;;;;;104882;261;40111;-31
2023/03/28 01:24:38;;;;;;;5.30;2.90;;;;;;;;;;104921;261;43995;-31
2023/03/28 01:27:21;;;;;;;5.20;2.80;;;;;;;;;;104947;261;42227;-30
2023/03/28 01:30:38;;;;;;;5.20;2.80;;;;;;;;;;104965;261;38610;-31
2023/03/28 01:33:52;;;;;;;5.20;3.00;;;;;;;;;;104879;261;46481;-33
2023/03/28 01:37:15;;;;;;;5.40;2.80;;;;;;;;;;104909;262;43360;-31
2023/03/28 01:40:17;;;;;;;5.80;3.00;;;;;;;;;;104945;261;42439;-30
2023/03/28 01:43:07;;;;;;;5.60;2.80;;;;;;;;;;104869;261;38898;-30
2023/03/28 01:45:54;;;;;;;5.50;2.90;;;;;;;;;;104925;262;40026;-30
2023/03/28 01:48:42;;;;;;;5.40;3.00;;;;;;;;;;104825;262;175799;-30
2023/03/28 01:51:25;;;;;;;5.30;3.00;;;;;;;;;;104922;250;43293;-30
2023/03/28 01:54:04;;;;;;;5.50;3.10;;;;;;;;;;104919;261;46213;-30
2023/03/28 01:56:47;;;;;;;5.10;2.90;;;;;;;;;;104915;261;40803;-30
2023/03/28 01:59:32;;;;;;;5.20;2.80;;;;;;;;;;104930;261;43190;-31
2023/03/28 02:02:12;;;;;;;6.20;2.90;;;;;;;;;;104797;261;195628;-30
2023/03/28 02:04:48;;;;;;;5.30;2.80;;;;;;;;;;104938;261;38860;-30
2023/03/28 02:07:30;;;;;;;5.70;3.00;;;;;;;;;;104933;261;39825;-31
2023/03/28 02:10:09;;;;;;;5.70;3.00;;;;;;;;;;104954;261;43005;-31
2023/03/28 02:12:49;;;;;;;7.00;3.50;;;;;;;;;;104919;266;42179;-31
2023/03/28 02:15:29;;;;;;;5.60;3.00;;;;;;;;;;104951;261;39110;-31
2023/03/28 02:18:11;;;;;;;5.60;3.00;;;;;;;;;;104962;261;39822;-31
2023/03/28 02:20:54;;;;;;;5.70;3.00;;;;;;;;;;104786;261;175450;-31
2023/03/28 02:23:37;;;;;;;5.30;3.00;;;;;;;;;;104914;261;42232;-31
2023/03/28 02:26:16;;;;;;;5.70;3.30;;;;;;;;;;104919;261;38787;-31
2023/03/28 02:28:55;;;;;;;5.80;3.20;;;;;;;;;;104956;261;39690;-31
2023/03/28 02:31:32;;;;;;;6.10;3.40;;;;;;;;;;104961;261;43072;-31
2023/03/28 02:34:10;;;;;;;6.30;3.50;;;;;;;;;;104795;261;175777;-31
2023/03/28 02:36:53;;;;;;;6.10;3.30;;;;;;;;;;104974;261;39614;-30
2023/03/28 02:39:49;;;;;;;6.60;3.70;;;;;;;;;;104952;261;41053;-31
2023/03/28 02:42:51;;;;;;;6.20;3.60;;;;;;;;;;104963;261;43983;-31
2023/03/28 02:45:49;;;;;;;6.20;3.70;;;;;;;;;;104914;262;48318;-31
2023/03/28 02:48:39;;;;;;;5.80;3.40;;;;;;;;;;104925;262;38881;-31
2023/03/28 02:51:29;;;;;;;6.30;3.90;;;;;;;;;;104900;261;39573;-31
2023/03/28 02:54:26;;;;;;;6.20;3.90;;;;;;;;;;104721;261;175779;-31
2023/03/28 02:57:11;;;;;;;6.80;4.00;;;;;;;;;;104904;261;42284;-31
2023/03/28 02:59:52;;;;;;;6.60;3.70;;;;;;;;;;104937;261;38996;-30
2023/03/28 03:02:27;;;;;;;6.10;3.70;;;;;;;;;;104942;261;39710;-30
2023/03/28 03:05:02;;;;;;;6.20;3.70;;;;;;;;;;104899;261;43024;-30
2023/03/28 03:07:37;;;;;;;6.20;3.90;;;;;;;;;;104920;261;42180;-30
2023/03/28 03:10:15;;;;;;;7.10;3.80;;;;;;;;;;104925;261;38765;-31
2023/03/28 03:12:51;;;;;;;6.30;3.70;;;;;;;;;;104928;262;39757;-30
2023/03/28 03:15:29;;;;;;;6.60;3.70;;;;;;;;;;104856;261;42889;-31
2023/03/28 03:18:06;;;;;;;6.60;4.00;;;;;;;;;;104824;261;175797;-31
2023/03/28 03:20:44;;;;;;;6.30;3.80;;;;;;;;;;104892;261;38908;-31
2023/03/28 03:23:24;;;;;;;7.00;4.10;;;;;;;;;;104921;261;39695;-31
2023/03/28 03:26:02;;;;;;;6.50;4.00;;;;;;;;;;104901;249;42904;-31
2023/03/28 03:28:37;;;;;;;6.70;4.10;;;;;;;;;;104922;261;42448;-31
2023/03/28 03:31:13;;;;;;;6.50;4.00;;;;;;;;;;104889;261;39027;-29
2023/03/28 03:33:50;;;;;;;6.30;3.90;;;;;;;;;;104931;261;40023;-29
2023/03/28 03:36:30;;;;;;;7.90;4.10;;;;;;;;;;104620;261;317671;-30
2023/03/28 03:39:06;;;;;;;6.30;3.80;;;;;;;;;;104961;261;42292;-30
2023/03/28 03:41:42;;;;;;;7.10;4.00;;;;;;;;;;104972;261;38987;-30
2023/03/28 03:44:19;;;;;;;7.00;4.10;;;;;;;;;;104912;261;39856;-31
2023/03/28 03:46:56;;;;;;;6.30;3.90;;;;;;;;;;104985;261;49110;-31
2023/03/28 03:49:35;;;;;;;7.10;4.20;;;;;;;;;;104929;261;42337;-31
2023/03/28 03:52:12;;;;;;;7.70;4.00;;;;;;;;;;104982;261;38918;-30
2023/03/28 03:54:46;;;;;;;6.60;4.10;;;;;;;;;;104886;261;39747;-31
2023/03/28 03:57:23;;;;;;;6.90;4.30;;;;;;;;;;104957;261;43222;-31
2023/03/28 03:59:57;;;;;;;6.60;3.80;;;;;;;;;;104969;261;42212;-32
2023/03/28 04:02:34;;;;;;;7.00;3.90;;;;;;;;;;104976;261;38704;-31
2023/03/28 04:05:09;;;;;;;6.90;3.70;;;;;;;;;;104911;261;40711;-32
2023/03/28 04:07:46;;;;;;;7.50;3.60;;;;;;;;;;104955;261;42879;-31
2023/03/28 04:10:20;;;;;;;6.30;3.70;;;;;;;;;;105000;261;43401;-31
2023/03/28 04:12:55;;;;;;;6.20;3.70;;;;;;;;;;104919;262;39030;-31
2023/03/28 04:15:30;;;;;;;6.50;3.90;;;;;;;;;;104898;262;39709;-31
2023/03/28 04:18:05;;;;;;;7.40;4.00;;;;;;;;;;104933;261;44097;-31
2023/03/28 04:20:42;;;;;;;6.40;4.00;;;;;;;;;;104363;261;916022;-30
2023/03/28 04:23:17;;;;;;;6.30;3.60;;;;;;;;;;104975;261;39924;-31
2023/03/28 04:25:54;;;;;;;6.40;3.90;;;;;;;;;;104929;261;40097;-31
2023/03/28 04:28:29;;;;;;;6.60;3.90;;;;;;;;;;104971;261;43163;-31
2023/03/28 04:31:10;;;;;;;6.30;3.80;;;;;;;;;;104947;261;43383;-30
2023/03/28 04:33:47;;;;;;;5.90;3.70;;;;;;;;;;104973;261;39982;-30
2023/03/28 04:36:21;;;;;;;6.30;3.80;;;;;;;;;;104910;261;39849;-31
2023/03/28 04:38:57;;;;;;;6.10;3.70;;;;;;;;;;104989;261;43230;-30
2023/03/28 04:41:34;;;;;;;5.60;3.60;;;;;;;;;;104948;261;42417;-30
2023/03/28 04:44:13;;;;;;;6.40;3.90;;;;;;;;;;104936;261;38854;-30
2023/03/28 04:46:50;;;;;;;6.00;3.50;;;;;;;;;;104939;261;39723;-30
2023/03/28 04:49:27;;;;;;;6.60;3.70;;;;;;;;;;104954;261;43020;-30
2023/03/28 04:52:08;;;;;;;6.10;3.70;;;;;;;;;;104957;261;43312;-31
2023/03/28 04:54:44;;;;;;;6.60;3.80;;;;;;;;;;104952;259;39903;-30
2023/03/28 04:57:20;;;;;;;6.60;4.10;;;;;;;;;;104920;261;39527;-30
2023/03/28 04:59:57;;;;;;;6.70;4.00;;;;;;;;;;104953;261;42738;-30
2023/03/28 05:02:34;;;;;;;6.00;3.40;;;;;;;;;;104932;261;42176;-31
2023/03/28 05:05:10;;;;;;;7.20;3.80;;;;;;;;;;104935;261;38793;-31
2023/03/28 05:07:44;;;;;;;6.20;3.80;;;;;;;;;;104945;261;39696;-31
2023/03/28 05:10:21;;;;;;;6.70;3.80;;;;;;;;;;104932;262;43062;-31
2023/03/28 05:12:58;;;;;;;6.10;3.40;;;;;;;;;;104957;261;43391;-31
2023/03/28 05:15:31;;;;;;;11.90;6.00;;;;;;;;;;104964;261;38705;-30
2023/03/28 05:18:05;;;;;;;10.80;5.30;;;;;;;;;;104278;261;896339;-30
2023/03/28 05:20:41;;;;;;;10.60;5.10;;;;;;;;;;104955;261;43149;-30
2023/03/28 05:23:15;;;;;;;9.50;5.50;;;;;;;;;;104961;261;42195;-30
2023/03/28 05:25:54;;;;;;;10.00;5.30;;;;;;;;;;104945;261;38916;-31
2023/03/28 05:28:30;;;;;;;10.20;5.20;;;;;;;;;;104827;262;39407;-31
2023/03/28 05:31:06;;;;;;;11.00;5.20;;;;;;;;;;104943;261;43086;-31
2023/03/28 05:33:40;;;;;;;11.00;5.20;;;;;;;;;;104966;261;41957;-30
2023/03/28 05:36:16;;;;;;;10.70;5.50;;;;;;;;;;104976;261;38809;-30
2023/03/28 05:38:52;;;;;;;8.80;4.80;;;;;;;;;;104865;254;41016;-31
2023/03/28 05:41:29;;;;;;;8.70;4.80;;;;;;;;;;104942;261;43921;-36
2023/03/28 05:44:03;;;;;;;9.00;4.80;;;;;;;;;;104906;261;43294;-31
2023/03/28 05:46:39;;;;;;;9.30;4.80;;;;;;;;;;104971;261;39117;-31
2023/03/28 05:49:15;;;;;;;9.50;4.90;;;;;;;;;;104902;261;46519;-31
2023/03/28 05:51:50;;;;;;;10.40;5.30;;;;;;;;;;104892;261;44215;-35
2023/03/28 05:54:25;;;;;;;8.60;4.50;;;;;;;;;;104928;261;41952;-31
2023/03/28 05:56:58;;;;;;;9.60;5.10;;;;;;;;;;104951;261;39163;-31
2023/03/28 05:59:32;;;;;;;8.30;4.40;;;;;;;;;;104942;261;46467;-32
2023/03/28 06:02:06;;;;;;;8.90;5.10;;;;;;;;;;105011;261;42970;-31
2023/03/28 06:04:41;;;;;;;8.70;5.00;;;;;;;;;;104946;261;43441;-30
2023/03/28 06:07:16;;;;;;;9.60;5.20;;;;;;;;;;104932;249;39949;-31
2023/03/28 06:10:00;;;;;;;8.30;5.00;;;;;;;;;;104881;261;46758;-31
2023/03/28 06:12:37;;;;;;;8.70;5.00;;;;;;;;;;104905;261;43938;-31
2023/03/28 06:15:14;;;;;;;7.90;5.00;;;;;;;;;;104897;261;42009;-30
2023/03/28 06:17:49;;;;;;;8.40;5.10;;;;;;;;;;104910;261;38674;-32
2023/03/28 06:20:23;;;;;;;8.80;5.00;;;;;;;;;;104907;261;39690;-31
2023/03/28 06:22:59;;;;;;;9.00;5.00;;;;;;;;;;104893;261;42991;-31
2023/03/28 06:25:34;;;;;;;9.60;5.10;;;;;;;;;;104940;261;42606;-34
2023/03/28 06:28:09;;;;;;;7.90;4.90;;;;;;;;;;104959;261;38577;-32
2023/03/28 06:30:42;;;;;;;8.40;5.30;;;;;;;;;;104918;262;46001;-34
2023/03/28 06:33:16;;;;;;;9.20;5.60;;;;;;;;;;104937;261;43128;-32
2023/03/28 06:35:50;;;;;;;8.80;5.40;;;;;;;;;;104970;261;42457;-33
2023/03/28 06:38:25;;;;;;;8.50;5.40;;;;;;;;;;104897;261;39125;-32
2023/03/28 06:41:02;;;;;;;8.00;5.10;;;;;;;;;;104951;261;45530;-32
2023/03/28 06:43:38;;;;;;;9.00;4.80;;;;;;;;;;104935;261;42907;-32
2023/03/28 06:46:15;;;;;;;7.80;5.20;;;;;;;;;;104921;261;42466;-32
2023/03/28 06:48:50;;;;;;;9.30;5.50;;;;;;;;;;104922;261;38761;-32
2023/03/28 06:51:27;;;;;;;8.30;5.40;;;;;;;;;;104928;261;40000;-33
2023/03/28 06:54:04;;;;;;;10.40;5.40;;;;;;;;;;104906;261;42998;-31
2023/03/28 06:56:37;;;;;;;8.30;4.90;;;;;;;;;;104921;261;42321;-31
2023/03/28 06:59:12;;;;;;;8.50;5.60;;;;;;;;;;104932;261;38950;-31
2023/03/28 07:01:48;;;;;;;7.80;5.20;;;;;;;;;;104982;261;39698;-31
2023/03/28 07:04:23;;;;;;;8.60;5.30;;;;;;;;;;104919;261;44073;-35
2023/03/28 07:06:57;;;;;;;8.40;5.20;;;;;;;;;;104912;261;42470;-33
2023/03/28 07:09:31;;;;;;;8.80;5.40;;;;;;;;;;104929;261;38770;-33
2023/03/28 07:12:04;;;;;;;7.80;5.20;;;;;;;;;;104922;261;39750;-33
2023/03/28 07:14:39;;;;;;;8.40;5.30;;;;;;;;;;104927;262;42992;-34
2023/03/28 07:17:12;;;;;;;8.80;5.40;;;;;;;;;;105004;261;44258;-33
2023/03/28 07:19:48;;;;;;;8.60;5.10;;;;;;;;;;104952;261;38886;-33
2023/03/28 07:22:24;;;;;;;7.90;5.50;;;;;;;;;;104986;261;39854;-33
2023/03/28 07:24:57;;;;;;;8.40;5.20;;;;;;;;;;104982;261;44267;-34
2023/03/28 07:27:30;;;;;;;7.70;5.10;;;;;;;;;;104980;261;43658;-33
2023/03/28 07:30:04;;;;;;;8.50;5.10;;;;;;;;;;104815;261;175597;-34
2023/03/28 07:32:38;;;;;;;7.80;5.10;;;;;;;;;;104947;261;39777;-33
2023/03/28 07:35:30;;;;;;;8.20;5.30;;;;;;;;;;104934;261;43851;-32
2023/03/28 07:38:04;;;;;;;8.50;5.50;;;;;;;;;;104934;261;42469;-34
2023/03/28 07:40:40;;;;;;;8.00;5.50;;;;;;;;;;104900;261;39030;-36
2023/03/28 07:43:15;;;;;;;8.00;5.30;;;;;;;;;;104888;261;40057;-33
2023/03/28 07:45:51;;;;;;;7.80;5.30;;;;;;;;;;104907;261;42926;-33
2023/03/28 07:48:27;;;;;;;8.00;5.20;;;;;;;;;;104896;261;42396;-34
2023/03/28 07:51:00;;;;;;;8.00;5.10;;;;;;;;;;104889;261;38823;-33
2023/03/28 07:53:38;;;;;;;8.30;5.20;;;;;;;;;;104929;261;39734;-33
2023/03/28 07:56:12;;;;;;;7.30;4.60;;;;;;;;;;104935;261;43035;-34
2023/03/28 07:58:48;;;;;;;6.90;4.90;;;;;;;;;;104940;262;41935;-34
2023/03/28 08:01:25;;;;;;;7.20;4.90;;;;;;;;;;104911;261;38754;-33
2023/03/28 08:03:59;;;;;;;7.40;4.80;;;;;;;;;;104925;262;39657;-33
2023/03/28 08:06:36;;;;;;;8.90;5.10;;;;;;;;;;104936;261;42961;-33
2023/03/28 08:09:12;;;;;;;8.10;5.40;;;;;;;;;;104920;261;43454;-33
2023/03/28 08:11:48;;;;;;;6.90;4.80;;;;;;;;;;104821;257;39959;-33
2023/03/28 08:14:22;;;;;;;6.90;4.80;;;;;;;;;;104954;261;40982;-33
2023/03/28 08:16:56;;;;;;;7.90;4.90;;;;;;;;;;104838;262;42833;-33
2023/03/28 08:19:32;;;;;;;8.00;5.00;;;;;;;;;;104944;261;42290;-33
2023/03/28 08:22:09;;;;;;;7.30;4.40;;;;;;;;;;104896;261;38875;-33
2023/03/28 08:24:44;;;;;;;7.20;5.00;;;;;;;;;;104907;261;39964;-32
2023/03/28 08:27:17;;;;;;;7.60;4.90;;;;;;;;;;104962;261;42959;-33
2023/03/28 08:29:53;;;;;;;7.70;4.70;;;;;;;;;;104941;261;42323;-34
2023/03/28 08:32:27;;;;;;;6.80;4.70;;;;;;;;;;104885;261;39888;-33
2023/03/28 08:35:05;;;;;;;6.70;4.40;;;;;;;;;;104923;250;40990;-33
2023/03/28 08:37:38;;;;;;;6.80;4.50;;;;;;;;;;104951;261;42569;-33
2023/03/28 08:40:19;;;;;;;6.50;4.10;;;;;;;;;;104975;261;42116;-33
2023/03/28 08:43:17;;;;;;;6.50;4.10;;;;;;;;;;104927;261;39017;-33
2023/03/28 08:45:56;;;;;;;7.10;4.40;;;;;;;;;;104943;261;39832;-32
2023/03/28 08:48:39;;;;;;;6.90;4.20;;;;;;;;;;104973;261;42920;-31
2023/03/28 08:51:22;;;;;;;6.60;4.20;;;;;;;;;;104891;261;42288;-32
2023/03/28 08:54:06;;;;;;;6.50;4.00;;;;;;;;;;105035;261;38929;-32
2023/03/28 08:56:44;;;;;;;6.10;3.80;;;;;;;;;;104951;261;39517;-34
2023/03/28 08:59:21;;;;;;;6.50;3.60;;;;;;;;;;104947;261;42874;-33
2023/03/28 09:01:54;;;;;;;5.80;3.80;;;;;;;;;;104928;261;42177;-34
2023/03/28 09:04:33;;;;;;;6.10;3.70;;;;;;;;;;104903;261;38835;-35
2023/03/28 09:07:16;;;;;;;6.20;3.70;;;;;;;;;;104892;261;40782;-33
2023/03/28 09:10:01;;;;;;;6.10;3.40;;;;;;;;;;104899;261;42960;-32
2023/03/28 09:12:50;;;;;;;5.90;3.40;;;;;;;;;;104866;261;41253;-35
2023/03/28 09:15:40;;;;;;;5.60;3.30;;;;;;;;;;104963;261;39090;-34
2023/03/28 09:18:41;;;;;;;5.40;3.30;;;;;;;;;;104981;261;39614;-34
2023/03/28 09:21:26;;;;;;;6.00;3.50;;;;;;;;;;104969;261;43985;-31
2023/03/28 09:24:25;;;;;;;5.60;3.20;;;;;;;;;;104911;261;42186;-30
2023/03/28 09:27:06;;;;;;;5.90;3.50;;;;;;;;;;104921;261;38579;-31
2023/03/28 09:29:45;;;;;;;5.70;3.50;;;;;;;;;;104943;261;40795;-31
2023/03/28 09:32:24;;;;;;;5.60;3.40;;;;;;;;;;104916;261;42917;-31
2023/03/28 09:34:58;;;;;;;5.70;3.30;;;;;;;;;;105006;261;42137;-31
2023/03/28 09:37:41;;;;;;;5.50;3.40;;;;;;;;;;104963;261;38817;-31
2023/03/28 09:40:22;;;;;;;5.30;3.20;;;;;;;;;;104975;261;39662;-31
2023/03/28 09:43:06;;;;;;;5.70;3.20;;;;;;;;;;104893;261;43873;-32
2023/03/28 09:45:58;;;;;;;5.90;3.30;;;;;;;;;;104904;261;42253;-32
2023/03/28 09:48:35;;;;;;;5.50;3.20;;;;;;;;;;104979;261;38834;-32
2023/03/28 09:51:16;;;;;;;5.00;3.10;;;;;;;;;;104974;261;40814;-32
2023/03/28 09:53:50;;;;;;;5.40;3.40;;;;;;;;;;104887;261;42973;-33
2023/03/28 09:56:30;;;;;;;5.50;3.30;;;;;;;;;;104925;261;42146;-32
2023/03/28 09:59:05;;;;;;;5.80;3.40;;;;;;;;;;104955;261;38786;-31
2023/03/28 10:01:44;;;;;;;5.40;3.40;;;;;;;;;;104949;261;40689;-30
2023/03/28 10:04:21;;;;;;;5.40;3.40;;;;;;;;;;104882;261;42840;-33
2023/03/28 10:06:55;;;;;;;5.70;3.60;;;;;;;;;;104963;262;43443;-32
2023/03/28 10:09:30;;;;;;;5.70;3.30;;;;;;;;;;104914;261;38948;-32
2023/03/28 10:12:10;;;;;;;6.40;3.70;;;;;;;;;;104915;261;39847;-31
2023/03/28 10:14:48;;;;;;;5.30;3.30;;;;;;;;;;104898;261;42906;-30
2023/03/28 10:17:29;;;;;;;5.80;3.70;;;;;;;;;;104986;261;43426;-29
2023/03/28 10:20:07;;;;;;;5.60;3.50;;;;;;;;;;104979;261;38811;-32
2023/03/28 10:22:42;;;;;;;5.40;3.50;;;;;;;;;;104952;261;39698;-32
2023/03/28 10:25:20;;;;;;;5.70;3.50;;;;;;;;;;105024;261;49641;-32
2023/03/28 10:27:55;;;;;;;4.80;3.00;;;;;;;;;;104919;261;42164;-33
2023/03/28 10:30:30;;;;;;;5.70;3.30;;;;;;;;;;104924;261;38804;-32
2023/03/28 10:33:26;;;;;;;4.70;3.00;;;;;;;;;;104869;261;175564;-32
2023/03/28 10:36:05;;;;;;;5.10;3.10;;;;;;;;;;104952;261;50933;-32
2023/03/28 10:38:48;;;;;;;4.90;2.80;;;;;;;;;;104980;261;42360;-31
2023/03/28 10:41:25;;;;;;;5.20;3.00;;;;;;;;;;104953;261;39953;-32
2023/03/28 10:44:00;;;;;;;5.10;3.10;;;;;;;;;;104894;261;40825;-31
2023/03/28 10:46:36;;;;;;;5.30;3.00;;;;;;;;;;104940;261;42821;-32
2023/03/28 10:49:17;;;;;;;5.20;2.70;;;;;;;;;;104993;261;41950;-32
2023/03/28 10:51:51;;;;;;;5.00;2.90;;;;;;;;;;104957;261;38820;-31
2023/03/28 10:54:47;;;;;;;4.80;2.60;;;;;;;;;;104903;261;39730;-32
2023/03/28 10:57:29;;;;;;;5.10;2.80;;;;;;;;;;104964;259;42833;-32
2023/03/28 11:00:11;;;;;;;5.00;2.50;;;;;;;;;;104986;261;42164;-33
2023/03/28 11:03:12;;;;;;;5.00;2.80;;;;;;;;;;104952;262;39926;-32
2023/03/28 11:05:53;;;;;;;4.70;2.50;;;;;;;;;;104879;261;39412;-32
2023/03/28 11:08:57;;;;;;;5.10;2.80;;;;;;;;;;104861;262;42849;-31
2023/03/28 11:11:45;;;;;;;4.40;2.50;;;;;;;;;;104925;261;42230;-31
2023/03/28 11:14:40;;;;;;;4.70;2.70;;;;;;;;;;104984;261;39221;-33
2023/03/28 11:17:23;;;;;;;4.20;2.20;;;;;;;;;;104958;261;46164;-34
2023/03/28 11:20:28;;;;;;;4.30;2.60;;;;;;;;;;104933;249;44350;-34
2023/03/28 11:23:20;;;;;;;4.40;2.30;;;;;;;;;;104965;250;42286;-32
2023/03/28 11:26:03;;;;;;;4.30;2.40;;;;;;;;;;104874;261;39280;-31
2023/03/28 11:28:52;;;;;;;4.90;2.20;;;;;;;;;;104940;261;39700;-31
2023/03/28 11:31:34;;;;;;;4.90;2.30;;;;;;;;;;104900;261;42962;-31
2023/03/28 11:34:18;;;;;;;4.30;2.20;;;;;;;;;;104909;261;41877;-31
2023/03/28 11:37:00;;;;;;;4.10;2.20;;;;;;;;;;104457;262;40837;-31
2023/03/28 11:39:43;;;;;;;4.50;2.30;;;;;;;;;;104927;261;39807;-30
2023/03/28 11:42:23;;;;;;;5.40;2.10;;;;;;;;;;104846;261;175553;-32
2023/03/28 11:45:07;;;;;;;4.10;2.00;;;;;;;;;;104896;262;42135;-31
2023/03/28 11:47:47;;;;;;;4.70;1.90;;;;;;;;;;104906;261;43879;-31
2023/03/28 11:50:27;;;;;;;3.90;2.00;;;;;;;;;;104957;261;39648;-32
2023/03/28 11:53:04;;;;;;;4.30;2.10;;;;;;;;;;104943;261;42966;-31
2023/03/28 11:55:42;;;;;;;5.30;2.00;;;;;;;;;;104929;261;42159;-30
2023/03/28 11:58:23;;;;;;;4.90;2.00;;;;;;;;;;104954;261;47018;-33
2023/03/28 12:01:03;;;;;;;4.80;1.90;;;;;;;;;;104922;262;40704;-32
2023/03/28 12:03:47;;;;;;;3.50;1.60;;;;;;;;;;104999;261;43283;-32
2023/03/28 12:06:29;;;;;;;4.80;2.00;;;;;;;;;;104924;261;42276;-31
2023/03/28 12:09:15;;;;;;;3.90;1.70;;;;;;;;;;104959;261;38954;-32
2023/03/28 12:11:58;;;;;;;4.50;1.80;;;;;;;;;;104980;261;39654;-32
2023/03/28 12:14:47;;;;;;;4.70;2.00;;;;;;;;;;104973;261;42981;-32
2023/03/28 12:17:25;;;;;;;4.00;1.90;;;;;;;;;;104282;261;894250;-32
2023/03/28 12:20:00;;;;;;;4.40;2.00;;;;;;;;;;104988;261;40120;-32
2023/03/28 12:22:42;;;;;;;5.30;1.90;;;;;;;;;;104928;261;39692;-32
2023/03/28 12:25:28;;;;;;;3.90;1.70;;;;;;;;;;104975;261;43957;-32
2023/03/28 12:28:09;;;;;;;3.90;1.70;;;;;;;;;;104966;261;44581;-33
2023/03/28 12:30:49;;;;;;;3.80;1.70;;;;;;;;;;104942;261;38547;-32
2023/03/28 12:33:37;;;;;;;4.50;1.70;;;;;;;;;;104974;261;39664;-33
2023/03/28 12:36:18;;;;;;;3.90;1.80;;;;;;;;;;104986;261;42952;-32
2023/03/28 12:38:58;;;;;;;4.10;1.80;;;;;;;;;;104987;262;42223;-32
2023/03/28 12:41:36;;;;;;;3.60;1.60;;;;;;;;;;104963;261;38780;-32
2023/03/28 12:44:15;;;;;;;3.60;1.60;;;;;;;;;;104969;261;40132;-33
2023/03/28 12:46:54;;;;;;;3.40;1.50;;;;;;;;;;104885;261;42879;-33
2023/03/28 12:49:40;;;;;;;3.60;1.60;;;;;;;;;;104962;261;48017;-32
2023/03/28 12:52:21;;;;;;;3.60;1.60;;;;;;;;;;104953;261;38818;-31
2023/03/28 12:55:01;;;;;;;3.10;1.50;;;;;;;;;;104945;261;41667;-31
2023/03/28 12:57:47;;;;;;;3.80;1.60;;;;;;;;;;104935;261;43945;-33
2023/03/28 13:00:28;;;;;;;4.00;1.60;;;;;;;;;;104967;261;43296;-33
2023/03/28 13:03:17;;;;;;;3.80;1.80;;;;;;;;;;104982;261;40427;-33
2023/03/28 13:06:02;;;;;;;4.30;1.50;;;;;;;;;;104934;261;39721;-32
2023/03/28 13:08:54;;;;;;;5.10;1.80;;;;;;;;;;104876;261;43158;-32
2023/03/28 13:11:40;;;;;;;4.10;1.70;;;;;;;;;;105065;261;42263;-32
2023/03/28 13:14:36;;;;;;;4.40;1.80;;;;;;;;;;104901;261;38815;-32
2023/03/28 13:17:22;;;;;;;4.20;1.60;;;;;;;;;;104977;261;39794;-33
2023/03/28 13:20:05;;;;;;;5.30;1.80;;;;;;;;;;105048;261;49840;-33
2023/03/28 13:22:52;;;;;;;5.30;2.00;;;;;;;;;;104958;262;43299;-33
2023/03/28 13:25:31;;;;;;;4.70;1.80;;;;;;;;;;104948;261;38866;-31
2023/03/28 13:28:30;;;;;;;5.10;1.90;;;;;;;;;;104957;261;40791;-31
2023/03/28 13:31:21;;;;;;;5.10;1.90;;;;;;;;;;104972;261;43132;-32
2023/03/28 13:34:00;;;;;;;4.50;2.00;;;;;;;;;;105012;261;42180;-32
2023/03/28 13:36:37;;;;;;;5.10;2.10;;;;;;;;;;104960;261;38800;-31
2023/03/28 13:39:23;;;;;;;4.70;2.00;;;;;;;;;;104945;261;39698;-31
2023/03/28 13:42:00;;;;;;;6.20;2.30;;;;;;;;;;104954;261;44098;-31
2023/03/28 13:44:43;;;;;;;6.00;2.40;;;;;;;;;;104945;261;42147;-31
2023/03/28 13:47:30;;;;;;;5.40;2.30;;;;;;;;;;104941;261;41054;-31
2023/03/28 13:50:15;;;;;;;5.50;2.10;;;;;;;;;;104922;261;40838;-32
2023/03/28 13:52:48;;;;;;;5.00;1.90;;;;;;;;;;104804;261;176360;-32
2023/03/28 13:55:26;;;;;;;5.20;2.20;;;;;;;;;;104963;261;42289;-32
2023/03/28 13:58:03;;;;;;;5.10;2.00;;;;;;;;;;105020;261;38817;-33
2023/03/28 14:00:36;;;;;;;4.90;2.00;;;;;;;;;;104993;261;39695;-33
2023/03/28 14:03:16;;;;;;;5.00;2.10;;;;;;;;;;104961;261;42899;-32
2023/03/28 14:05:49;;;;;;;5.10;2.00;;;;;;;;;;104852;261;175588;-30
2023/03/28 14:08:25;;;;;;;5.20;2.00;;;;;;;;;;104904;261;39938;-32
2023/03/28 14:10:59;;;;;;;4.80;2.10;;;;;;;;;;105052;261;47483;-32
2023/03/28 14:13:33;;;;;;;5.10;2.20;;;;;;;;;;104991;261;43026;-33
2023/03/28 14:16:10;;;;;;;4.80;2.10;;;;;;;;;;104937;261;43591;-32
2023/03/28 14:18:48;;;;;;;5.50;2.30;;;;;;;;;;104943;261;40068;-32
2023/03/28 14:21:26;;;;;;;5.10;2.30;;;;;;;;;;105042;261;47835;-33
2023/03/28 14:24:04;;;;;;;5.30;2.30;;;;;;;;;;104970;261;42853;-31
2023/03/28 14:26:40;;;;;;;5.40;2.20;;;;;;;;;;104859;254;43237;-33
2023/03/28 14:29:17;;;;;;;6.00;2.10;;;;;;;;;;104924;261;39866;-32
2023/03/28 14:31:52;;;;;;;5.90;2.10;;;;;;;;;;104961;261;48121;-32
2023/03/28 14:34:31;;;;;;;5.20;2.40;;;;;;;;;;104973;261;44003;-31
2023/03/28 14:37:09;;;;;;;5.50;2.20;;;;;;;;;;105006;261;43313;-32
2023/03/28 14:39:44;;;;;;;7.40;2.50;;;;;;;;;;104928;261;40229;-32
2023/03/28 14:42:21;;;;;;;8.10;2.50;;;;;;;;;;104910;261;40799;-32
2023/03/28 14:44:57;;;;;;;7.80;2.70;;;;;;;;;;104974;261;43992;-32
2023/03/28 14:47:33;;;;;;;7.50;2.50;;;;;;;;;;104978;261;42168;-32
2023/03/28 14:50:12;;;;;;;6.80;2.20;;;;;;;;;;104973;261;39152;-30
2023/03/28 14:52:46;;;;;;;5.90;2.10;;;;;;;;;;104940;261;41184;-31
2023/03/28 14:55:25;;;;;;;6.20;2.10;;;;;;;;;;104979;261;42774;-30
2023/03/28 14:58:01;;;;;;;6.80;2.50;;;;;;;;;;105032;265;42458;-33
2023/03/28 15:00:40;;;;;;;5.20;2.10;;;;;;;;;;104905;261;39031;-32
2023/03/28 15:03:20;;;;;;;5.70;2.30;;;;;;;;;;104917;261;40807;-32
2023/03/28 15:05:55;;;;;;;5.70;2.30;;;;;;;;;;104911;261;42810;-32
2023/03/28 15:08:34;;;;;;;5.40;2.00;;;;;;;;;;104934;261;43368;-32
2023/03/28 15:11:16;;;;;;;5.10;1.80;;;;;;;;;;104887;261;40040;-32
2023/03/28 15:13:57;;;;;;;6.80;1.90;;;;;;;;;;104929;261;39844;-31
2023/03/28 15:16:32;;;;;;;4.50;1.80;;;;;;;;;;104956;261;42855;-32
2023/03/28 15:19:09;;;;;;;4.90;1.90;;;;;;;;;;104953;261;43262;-32
2023/03/28 15:21:44;;;;;;;6.90;2.00;;;;;;;;;;104950;261;40184;-32
2023/03/28 15:24:20;;;;;;;4.90;2.00;;;;;;;;;;104988;261;40787;-32
2023/03/28 15:26:56;;;;;;;5.40;1.90;;;;;;;;;;104943;261;43097;-32
2023/03/28 15:29:33;;;;;;;5.10;1.80;;;;;;;;;;104963;261;44399;-32
2023/03/28 15:32:12;;;;;;;5.10;1.80;;;;;;;;;;104929;261;38593;-32
2023/03/28 15:34:48;;;;;;;4.30;1.50;;;;;;;;;;104931;261;40955;-31
2023/03/28 15:37:26;;;;;;;5.10;1.70;;;;;;;;;;104939;262;42846;-32
2023/03/28 15:40:26;;;;;;;4.40;1.80;;;;;;;;;;104978;259;43253;-32
2023/03/28 15:43:04;;;;;;;4.70;1.70;;;;;;;;;;104884;261;38979;-32
2023/03/28 15:45:44;;;;;;;4.40;1.70;;;;;;;;;;104967;261;39709;-32
2023/03/28 15:48:21;;;;;;;4.40;1.60;;;;;;;;;;104945;261;44121;-31
2023/03/28 15:50:56;;;;;;;3.90;1.60;;;;;;;;;;104964;261;41920;-31
2023/03/28 15:53:31;;;;;;;4.40;1.60;;;;;;;;;;104962;261;45892;-31
2023/03/28 15:56:23;;;;;;;4.00;1.70;;;;;;;;;;104962;261;40820;-30
2023/03/28 15:59:09;;;;;;;5.30;1.70;;;;;;;;;;104907;260;42874;-31